sensor_id;sensor_type;location;lat;lon;timestamp;P1;durP1;ratioP1;P2;durP2;ratioP2
23394;SDS011;11870;53.084;18.206;2023-06-14T00:02:19;7.43;;;4.28;;
23394;SDS011;11870;53.084;18.206;2023-06-14T00:04:45;7.75;;;5.15;;
23394;SDS011;11870;53.084;18.206;2023-06-14T00:07:13;6.35;;;4.82;;
23394;SDS011;11870;53.084;18.206;2023-06-14T00:09:41;7.40;;;4.95;;
23394;SDS011;11870;53.084;18.206;2023-06-14T00:12:08;8.13;;;5.50;;
23394;SDS011;11870;53.084;18.206;2023-06-14T00:14:35;8.10;;;5.03;;
23394;SDS011;11870;53.084;18.206;2023-06-14T00:17:01;8.73;;;5.15;;
23394;SDS011;11870;53.084;18.206;2023-06-14T00:19:28;7.78;;;5.10;;
23394;SDS011;11870;53.084;18.206;2023-06-14T00:21:58;8.80;;;4.60;;
23394;SDS011;11870;53.084;18.206;2023-06-14T00:24:25;7.85;;;4.97;;
23394;SDS011;11870;53.084;18.206;2023-06-14T00:26:51;7.72;;;4.80;;
23394;SDS011;11870;53.084;18.206;2023-06-14T00:29:18;9.55;;;4.90;;
23394;SDS011;11870;53.084;18.206;2023-06-14T00:31:44;7.35;;;5.07;;
23394;SDS011;11870;53.084;18.206;2023-06-14T00:34:11;8.38;;;5.18;;
23394;SDS011;11870;53.084;18.206;2023-06-14T00:36:37;7.72;;;5.22;;
23394;SDS011;11870;53.084;18.206;2023-06-14T00:39:07;6.30;;;4.57;;
23394;SDS011;11870;53.084;18.206;2023-06-14T00:41:35;6.40;;;4.80;;
23394;SDS011;11870;53.084;18.206;2023-06-14T00:44:01;6.57;;;4.70;;
23394;SDS011;11870;53.084;18.206;2023-06-14T00:46:28;10.43;;;5.22;;
23394;SDS011;11870;53.084;18.206;2023-06-14T00:48:55;7.63;;;4.93;;
23394;SDS011;11870;53.084;18.206;2023-06-14T00:51:22;8.38;;;4.78;;
23394;SDS011;11870;53.084;18.206;2023-06-14T00:53:48;6.57;;;4.57;;
23394;SDS011;11870;53.084;18.206;2023-06-14T00:56:14;9.75;;;5.60;;
23394;SDS011;11870;53.084;18.206;2023-06-14T00:58:41;7.47;;;5.07;;
23394;SDS011;11870;53.084;18.206;2023-06-14T01:01:11;13.05;;;6.50;;
23394;SDS011;11870;53.084;18.206;2023-06-14T01:03:37;9.82;;;5.85;;
23394;SDS011;11870;53.084;18.206;2023-06-14T01:06:09;6.60;;;5.07;;
23394;SDS011;11870;53.084;18.206;2023-06-14T01:09:15;7.93;;;5.70;;
23394;SDS011;11870;53.084;18.206;2023-06-14T01:11:50;9.15;;;5.13;;
23394;SDS011;11870;53.084;18.206;2023-06-14T01:14:26;8.70;;;5.85;;
23394;SDS011;11870;53.084;18.206;2023-06-14T01:16:54;8.85;;;6.30;;
23394;SDS011;11870;53.084;18.206;2023-06-14T01:19:22;9.85;;;5.72;;
23394;SDS011;11870;53.084;18.206;2023-06-14T01:21:51;6.95;;;5.85;;
23394;SDS011;11870;53.084;18.206;2023-06-14T01:24:18;8.30;;;5.57;;
23394;SDS011;11870;53.084;18.206;2023-06-14T01:26:49;8.70;;;6.05;;
23394;SDS011;11870;53.084;18.206;2023-06-14T01:29:21;10.43;;;6.35;;
23394;SDS011;11870;53.084;18.206;2023-06-14T01:31:50;9.77;;;6.63;;
23394;SDS011;11870;53.084;18.206;2023-06-14T01:34:17;10.90;;;6.68;;
23394;SDS011;11870;53.084;18.206;2023-06-14T01:36:43;8.52;;;6.38;;
23394;SDS011;11870;53.084;18.206;2023-06-14T01:39:14;9.82;;;6.35;;
23394;SDS011;11870;53.084;18.206;2023-06-14T01:41:45;8.93;;;6.03;;
23394;SDS011;11870;53.084;18.206;2023-06-14T01:44:16;7.65;;;5.75;;
23394;SDS011;11870;53.084;18.206;2023-06-14T01:46:49;10.65;;;6.70;;
23394;SDS011;11870;53.084;18.206;2023-06-14T01:49:17;7.47;;;6.28;;
23394;SDS011;11870;53.084;18.206;2023-06-14T01:51:43;9.93;;;6.60;;
23394;SDS011;11870;53.084;18.206;2023-06-14T01:54:10;9.45;;;7.03;;
23394;SDS011;11870;53.084;18.206;2023-06-14T01:56:36;7.80;;;6.03;;
23394;SDS011;11870;53.084;18.206;2023-06-14T01:59:02;8.75;;;6.60;;
23394;SDS011;11870;53.084;18.206;2023-06-14T02:01:29;10.02;;;6.55;;
23394;SDS011;11870;53.084;18.206;2023-06-14T02:03:56;8.82;;;7.00;;
23394;SDS011;11870;53.084;18.206;2023-06-14T02:06:23;10.10;;;7.30;;
23394;SDS011;11870;53.084;18.206;2023-06-14T02:08:54;10.73;;;7.57;;
23394;SDS011;11870;53.084;18.206;2023-06-14T02:11:20;12.23;;;7.07;;
23394;SDS011;11870;53.084;18.206;2023-06-14T02:13:46;10.52;;;7.55;;
23394;SDS011;11870;53.084;18.206;2023-06-14T02:16:13;11.43;;;8.15;;
23394;SDS011;11870;53.084;18.206;2023-06-14T02:18:39;11.77;;;7.85;;
23394;SDS011;11870;53.084;18.206;2023-06-14T02:21:06;12.75;;;8.15;;
23394;SDS011;11870;53.084;18.206;2023-06-14T02:23:32;11.07;;;8.15;;
23394;SDS011;11870;53.084;18.206;2023-06-14T02:25:59;10.93;;;8.18;;
23394;SDS011;11870;53.084;18.206;2023-06-14T02:28:25;11.55;;;8.15;;
23394;SDS011;11870;53.084;18.206;2023-06-14T02:30:51;12.50;;;8.20;;
23394;SDS011;11870;53.084;18.206;2023-06-14T02:33:17;15.05;;;8.60;;
23394;SDS011;11870;53.084;18.206;2023-06-14T02:35:44;13.15;;;8.82;;
23394;SDS011;11870;53.084;18.206;2023-06-14T02:38:11;14.73;;;8.93;;
23394;SDS011;11870;53.084;18.206;2023-06-14T02:40:38;10.88;;;7.93;;
23394;SDS011;11870;53.084;18.206;2023-06-14T02:43:06;13.20;;;8.18;;
23394;SDS011;11870;53.084;18.206;2023-06-14T02:45:32;14.10;;;9.77;;
23394;SDS011;11870;53.084;18.206;2023-06-14T02:47:58;13.52;;;8.65;;
23394;SDS011;11870;53.084;18.206;2023-06-14T02:50:25;14.20;;;8.38;;
23394;SDS011;11870;53.084;18.206;2023-06-14T02:52:53;14.18;;;8.05;;
23394;SDS011;11870;53.084;18.206;2023-06-14T02:55:22;12.05;;;8.32;;
23394;SDS011;11870;53.084;18.206;2023-06-14T02:57:48;11.75;;;8.65;;
23394;SDS011;11870;53.084;18.206;2023-06-14T03:00:15;13.40;;;8.30;;
23394;SDS011;11870;53.084;18.206;2023-06-14T03:02:41;14.43;;;8.25;;
23394;SDS011;11870;53.084;18.206;2023-06-14T03:05:08;15.57;;;8.25;;
23394;SDS011;11870;53.084;18.206;2023-06-14T03:07:35;12.65;;;7.90;;
23394;SDS011;11870;53.084;18.206;2023-06-14T03:10:09;15.40;;;9.00;;
23394;SDS011;11870;53.084;18.206;2023-06-14T03:12:35;12.85;;;8.65;;
23394;SDS011;11870;53.084;18.206;2023-06-14T03:15:02;13.23;;;9.18;;
23394;SDS011;11870;53.084;18.206;2023-06-14T03:17:29;14.00;;;8.52;;
23394;SDS011;11870;53.084;18.206;2023-06-14T03:19:59;14.23;;;7.93;;
23394;SDS011;11870;53.084;18.206;2023-06-14T03:22:25;14.65;;;8.13;;
23394;SDS011;11870;53.084;18.206;2023-06-14T03:24:52;13.52;;;7.68;;
23394;SDS011;11870;53.084;18.206;2023-06-14T03:27:19;11.43;;;6.95;;
23394;SDS011;11870;53.084;18.206;2023-06-14T03:29:46;12.63;;;7.75;;
23394;SDS011;11870;53.084;18.206;2023-06-14T03:32:12;13.73;;;7.90;;
23394;SDS011;11870;53.084;18.206;2023-06-14T03:34:39;16.23;;;7.30;;
23394;SDS011;11870;53.084;18.206;2023-06-14T03:37:06;15.60;;;8.10;;
23394;SDS011;11870;53.084;18.206;2023-06-14T03:39:32;13.00;;;6.93;;
23394;SDS011;11870;53.084;18.206;2023-06-14T03:41:59;16.60;;;7.43;;
23394;SDS011;11870;53.084;18.206;2023-06-14T03:44:26;12.35;;;7.18;;
23394;SDS011;11870;53.084;18.206;2023-06-14T03:46:52;11.98;;;6.85;;
23394;SDS011;11870;53.084;18.206;2023-06-14T03:49:18;12.80;;;7.82;;
23394;SDS011;11870;53.084;18.206;2023-06-14T03:51:44;15.10;;;7.05;;
23394;SDS011;11870;53.084;18.206;2023-06-14T03:54:16;11.70;;;6.95;;
23394;SDS011;11870;53.084;18.206;2023-06-14T03:56:45;10.35;;;6.85;;
23394;SDS011;11870;53.084;18.206;2023-06-14T03:59:14;14.55;;;6.70;;
23394;SDS011;11870;53.084;18.206;2023-06-14T04:01:41;13.30;;;7.25;;
23394;SDS011;11870;53.084;18.206;2023-06-14T04:04:10;11.40;;;6.45;;
23394;SDS011;11870;53.084;18.206;2023-06-14T04:06:36;13.43;;;7.43;;
23394;SDS011;11870;53.084;18.206;2023-06-14T04:09:03;14.95;;;7.35;;
23394;SDS011;11870;53.084;18.206;2023-06-14T04:11:30;14.07;;;7.15;;
23394;SDS011;11870;53.084;18.206;2023-06-14T04:13:57;14.05;;;7.57;;
23394;SDS011;11870;53.084;18.206;2023-06-14T04:16:23;13.73;;;7.97;;
23394;SDS011;11870;53.084;18.206;2023-06-14T04:18:50;11.55;;;7.45;;
23394;SDS011;11870;53.084;18.206;2023-06-14T04:21:17;15.65;;;7.20;;
23394;SDS011;11870;53.084;18.206;2023-06-14T04:23:44;16.67;;;7.65;;
23394;SDS011;11870;53.084;18.206;2023-06-14T04:26:11;13.82;;;7.40;;
23394;SDS011;11870;53.084;18.206;2023-06-14T04:28:37;11.40;;;6.85;;
23394;SDS011;11870;53.084;18.206;2023-06-14T04:31:06;12.85;;;8.15;;
23394;SDS011;11870;53.084;18.206;2023-06-14T04:33:37;12.80;;;7.70;;
23394;SDS011;11870;53.084;18.206;2023-06-14T04:36:09;13.07;;;8.20;;
23394;SDS011;11870;53.084;18.206;2023-06-14T04:38:37;12.10;;;7.80;;
23394;SDS011;11870;53.084;18.206;2023-06-14T04:41:03;14.25;;;8.25;;
23394;SDS011;11870;53.084;18.206;2023-06-14T04:43:31;13.18;;;7.47;;
23394;SDS011;11870;53.084;18.206;2023-06-14T04:46:04;14.20;;;7.50;;
23394;SDS011;11870;53.084;18.206;2023-06-14T04:48:39;13.25;;;7.97;;
23394;SDS011;11870;53.084;18.206;2023-06-14T04:51:08;11.90;;;7.82;;
23394;SDS011;11870;53.084;18.206;2023-06-14T04:53:35;14.70;;;7.80;;
23394;SDS011;11870;53.084;18.206;2023-06-14T04:56:02;12.27;;;7.60;;
23394;SDS011;11870;53.084;18.206;2023-06-14T04:58:29;12.88;;;7.18;;
23394;SDS011;11870;53.084;18.206;2023-06-14T05:00:55;10.90;;;7.45;;
23394;SDS011;11870;53.084;18.206;2023-06-14T05:03:22;15.77;;;7.57;;
23394;SDS011;11870;53.084;18.206;2023-06-14T05:05:49;13.10;;;8.00;;
23394;SDS011;11870;53.084;18.206;2023-06-14T05:08:16;12.95;;;7.60;;
23394;SDS011;11870;53.084;18.206;2023-06-14T05:10:42;13.38;;;7.47;;
23394;SDS011;11870;53.084;18.206;2023-06-14T05:13:08;13.98;;;6.80;;
23394;SDS011;11870;53.084;18.206;2023-06-14T05:15:35;13.10;;;6.70;;
23394;SDS011;11870;53.084;18.206;2023-06-14T05:18:02;8.95;;;6.10;;
23394;SDS011;11870;53.084;18.206;2023-06-14T05:20:28;14.48;;;6.28;;
23394;SDS011;11870;53.084;18.206;2023-06-14T05:22:55;15.13;;;6.18;;
23394;SDS011;11870;53.084;18.206;2023-06-14T05:25:22;13.02;;;6.80;;
23394;SDS011;11870;53.084;18.206;2023-06-14T05:27:48;14.73;;;6.22;;
23394;SDS011;11870;53.084;18.206;2023-06-14T05:30:15;11.13;;;5.97;;
23394;SDS011;11870;53.084;18.206;2023-06-14T05:32:41;12.18;;;5.97;;
23394;SDS011;11870;53.084;18.206;2023-06-14T05:35:08;9.05;;;5.32;;
23394;SDS011;11870;53.084;18.206;2023-06-14T05:37:34;13.68;;;6.05;;
23394;SDS011;11870;53.084;18.206;2023-06-14T05:40:01;10.25;;;5.78;;
23394;SDS011;11870;53.084;18.206;2023-06-14T05:42:30;8.45;;;5.60;;
23394;SDS011;11870;53.084;18.206;2023-06-14T05:44:56;11.00;;;6.60;;
23394;SDS011;11870;53.084;18.206;2023-06-14T05:47:23;11.60;;;6.28;;
23394;SDS011;11870;53.084;18.206;2023-06-14T05:49:49;9.73;;;5.43;;
23394;SDS011;11870;53.084;18.206;2023-06-14T05:52:15;8.23;;;5.38;;
23394;SDS011;11870;53.084;18.206;2023-06-14T05:54:41;9.77;;;5.85;;
23394;SDS011;11870;53.084;18.206;2023-06-14T05:57:08;9.98;;;6.13;;
23394;SDS011;11870;53.084;18.206;2023-06-14T05:59:35;12.25;;;6.50;;
23394;SDS011;11870;53.084;18.206;2023-06-14T06:02:02;12.02;;;6.05;;
23394;SDS011;11870;53.084;18.206;2023-06-14T06:04:28;8.57;;;5.43;;
23394;SDS011;11870;53.084;18.206;2023-06-14T06:06:55;10.30;;;5.68;;
23394;SDS011;11870;53.084;18.206;2023-06-14T06:09:21;8.43;;;5.72;;
23394;SDS011;11870;53.084;18.206;2023-06-14T06:11:48;9.68;;;6.32;;
23394;SDS011;11870;53.084;18.206;2023-06-14T06:14:14;9.93;;;6.60;;
23394;SDS011;11870;53.084;18.206;2023-06-14T06:16:40;13.77;;;6.57;;
23394;SDS011;11870;53.084;18.206;2023-06-14T06:19:10;11.50;;;6.97;;
23394;SDS011;11870;53.084;18.206;2023-06-14T06:21:37;11.70;;;7.32;;
23394;SDS011;11870;53.084;18.206;2023-06-14T06:24:04;14.25;;;6.70;;
23394;SDS011;11870;53.084;18.206;2023-06-14T06:26:31;12.32;;;7.00;;
23394;SDS011;11870;53.084;18.206;2023-06-14T06:28:58;12.75;;;6.95;;
23394;SDS011;11870;53.084;18.206;2023-06-14T06:31:24;13.30;;;7.78;;
23394;SDS011;11870;53.084;18.206;2023-06-14T06:33:53;12.23;;;6.85;;
23394;SDS011;11870;53.084;18.206;2023-06-14T06:36:20;15.82;;;7.25;;
23394;SDS011;11870;53.084;18.206;2023-06-14T06:38:47;15.95;;;7.85;;
23394;SDS011;11870;53.084;18.206;2023-06-14T06:41:13;13.82;;;7.53;;
23394;SDS011;11870;53.084;18.206;2023-06-14T06:43:39;14.50;;;7.00;;
23394;SDS011;11870;53.084;18.206;2023-06-14T06:46:06;14.00;;;6.88;;
23394;SDS011;11870;53.084;18.206;2023-06-14T06:48:32;10.02;;;6.90;;
23394;SDS011;11870;53.084;18.206;2023-06-14T06:50:59;15.70;;;7.30;;
23394;SDS011;11870;53.084;18.206;2023-06-14T06:53:25;13.60;;;7.38;;
23394;SDS011;11870;53.084;18.206;2023-06-14T06:55:52;15.90;;;7.72;;
23394;SDS011;11870;53.084;18.206;2023-06-14T06:58:18;15.43;;;7.50;;
23394;SDS011;11870;53.084;18.206;2023-06-14T07:00:45;12.27;;;7.22;;
23394;SDS011;11870;53.084;18.206;2023-06-14T07:03:11;14.77;;;6.78;;
23394;SDS011;11870;53.084;18.206;2023-06-14T07:05:38;12.20;;;7.18;;
23394;SDS011;11870;53.084;18.206;2023-06-14T07:08:04;12.88;;;6.88;;
23394;SDS011;11870;53.084;18.206;2023-06-14T07:10:30;14.40;;;6.53;;
23394;SDS011;11870;53.084;18.206;2023-06-14T07:12:57;9.88;;;6.40;;
23394;SDS011;11870;53.084;18.206;2023-06-14T07:15:23;11.75;;;6.47;;
23394;SDS011;11870;53.084;18.206;2023-06-14T07:17:50;10.02;;;6.15;;
23394;SDS011;11870;53.084;18.206;2023-06-14T07:20:16;13.18;;;6.13;;
23394;SDS011;11870;53.084;18.206;2023-06-14T07:22:43;12.35;;;6.10;;
23394;SDS011;11870;53.084;18.206;2023-06-14T07:25:10;10.93;;;5.82;;
23394;SDS011;11870;53.084;18.206;2023-06-14T07:27:43;9.85;;;5.85;;
23394;SDS011;11870;53.084;18.206;2023-06-14T07:30:10;8.88;;;5.65;;
23394;SDS011;11870;53.084;18.206;2023-06-14T07:32:37;11.90;;;5.57;;
23394;SDS011;11870;53.084;18.206;2023-06-14T07:35:03;8.65;;;5.70;;
23394;SDS011;11870;53.084;18.206;2023-06-14T07:37:30;10.73;;;5.88;;
23394;SDS011;11870;53.084;18.206;2023-06-14T07:39:56;10.57;;;5.45;;
23394;SDS011;11870;53.084;18.206;2023-06-14T07:42:22;10.27;;;5.43;;
23394;SDS011;11870;53.084;18.206;2023-06-14T07:44:49;8.73;;;5.60;;
23394;SDS011;11870;53.084;18.206;2023-06-14T07:47:17;11.07;;;6.05;;
23394;SDS011;11870;53.084;18.206;2023-06-14T07:49:44;13.50;;;5.85;;
23394;SDS011;11870;53.084;18.206;2023-06-14T07:52:10;14.98;;;5.82;;
23394;SDS011;11870;53.084;18.206;2023-06-14T07:54:36;13.43;;;6.15;;
23394;SDS011;11870;53.084;18.206;2023-06-14T07:57:03;16.40;;;5.97;;
23394;SDS011;11870;53.084;18.206;2023-06-14T07:59:29;10.90;;;5.78;;
23394;SDS011;11870;53.084;18.206;2023-06-14T08:01:56;13.35;;;6.22;;
23394;SDS011;11870;53.084;18.206;2023-06-14T08:04:22;14.15;;;6.60;;
23394;SDS011;11870;53.084;18.206;2023-06-14T08:06:51;12.00;;;5.60;;
23394;SDS011;11870;53.084;18.206;2023-06-14T08:09:19;12.35;;;6.03;;
23394;SDS011;11870;53.084;18.206;2023-06-14T08:11:45;15.88;;;6.25;;
23394;SDS011;11870;53.084;18.206;2023-06-14T08:14:11;15.25;;;5.40;;
23394;SDS011;11870;53.084;18.206;2023-06-14T08:16:37;12.20;;;5.07;;
23394;SDS011;11870;53.084;18.206;2023-06-14T08:19:03;13.43;;;6.03;;
23394;SDS011;11870;53.084;18.206;2023-06-14T08:21:30;12.50;;;5.45;;
23394;SDS011;11870;53.084;18.206;2023-06-14T08:23:59;7.90;;;4.60;;
23394;SDS011;11870;53.084;18.206;2023-06-14T08:26:25;8.45;;;5.30;;
23394;SDS011;11870;53.084;18.206;2023-06-14T08:28:54;8.88;;;5.30;;
23394;SDS011;11870;53.084;18.206;2023-06-14T08:31:21;9.40;;;4.80;;
23394;SDS011;11870;53.084;18.206;2023-06-14T08:33:49;8.45;;;4.63;;
23394;SDS011;11870;53.084;18.206;2023-06-14T08:36:15;8.45;;;4.63;;
23394;SDS011;11870;53.084;18.206;2023-06-14T08:38:41;9.25;;;5.20;;
23394;SDS011;11870;53.084;18.206;2023-06-14T08:41:08;7.45;;;4.63;;
23394;SDS011;11870;53.084;18.206;2023-06-14T08:43:38;10.73;;;4.85;;
23394;SDS011;11870;53.084;18.206;2023-06-14T08:46:05;9.48;;;4.95;;
23394;SDS011;11870;53.084;18.206;2023-06-14T08:48:34;9.20;;;5.13;;
23394;SDS011;11870;53.084;18.206;2023-06-14T08:51:00;10.95;;;4.85;;
23394;SDS011;11870;53.084;18.206;2023-06-14T08:53:27;9.57;;;4.43;;
23394;SDS011;11870;53.084;18.206;2023-06-14T08:56:00;8.93;;;4.63;;
23394;SDS011;11870;53.084;18.206;2023-06-14T08:58:30;8.25;;;4.55;;
23394;SDS011;11870;53.084;18.206;2023-06-14T09:01:02;11.68;;;4.75;;
23394;SDS011;11870;53.084;18.206;2023-06-14T09:03:28;8.25;;;4.65;;
23394;SDS011;11870;53.084;18.206;2023-06-14T09:05:56;14.93;;;4.75;;
23394;SDS011;11870;53.084;18.206;2023-06-14T09:08:25;7.60;;;4.13;;
23394;SDS011;11870;53.084;18.206;2023-06-14T09:10:55;8.07;;;4.50;;
23394;SDS011;11870;53.084;18.206;2023-06-14T09:13:22;8.73;;;4.43;;
23394;SDS011;11870;53.084;18.206;2023-06-14T09:15:49;11.85;;;4.45;;
23394;SDS011;11870;53.084;18.206;2023-06-14T09:18:15;10.90;;;4.53;;
23394;SDS011;11870;53.084;18.206;2023-06-14T09:20:42;10.63;;;4.45;;
23394;SDS011;11870;53.084;18.206;2023-06-14T09:23:09;8.85;;;4.45;;
23394;SDS011;11870;53.084;18.206;2023-06-14T09:25:42;10.88;;;4.57;;
23394;SDS011;11870;53.084;18.206;2023-06-14T09:28:09;9.30;;;4.55;;
23394;SDS011;11870;53.084;18.206;2023-06-14T09:30:36;8.73;;;4.38;;
23394;SDS011;11870;53.084;18.206;2023-06-14T09:33:05;13.88;;;6.40;;
23394;SDS011;11870;53.084;18.206;2023-06-14T09:35:32;9.40;;;4.68;;
23394;SDS011;11870;53.084;18.206;2023-06-14T09:37:58;10.55;;;4.63;;
23394;SDS011;11870;53.084;18.206;2023-06-14T09:40:24;12.20;;;4.35;;
23394;SDS011;11870;53.084;18.206;2023-06-14T09:42:52;9.32;;;4.60;;
23394;SDS011;11870;53.084;18.206;2023-06-14T09:45:18;12.95;;;4.55;;
23394;SDS011;11870;53.084;18.206;2023-06-14T09:47:50;7.97;;;4.57;;
23394;SDS011;11870;53.084;18.206;2023-06-14T09:50:16;10.75;;;5.65;;
23394;SDS011;11870;53.084;18.206;2023-06-14T09:52:45;10.75;;;5.03;;
23394;SDS011;11870;53.084;18.206;2023-06-14T09:55:17;8.93;;;5.32;;
23394;SDS011;11870;53.084;18.206;2023-06-14T09:57:45;9.80;;;4.72;;
23394;SDS011;11870;53.084;18.206;2023-06-14T10:00:13;8.98;;;5.63;;
23394;SDS011;11870;53.084;18.206;2023-06-14T10:02:40;8.43;;;5.20;;
23394;SDS011;11870;53.084;18.206;2023-06-14T10:05:13;11.65;;;5.35;;
23394;SDS011;11870;53.084;18.206;2023-06-14T10:07:53;8.80;;;5.10;;
23394;SDS011;11870;53.084;18.206;2023-06-14T10:10:24;7.38;;;5.40;;
23394;SDS011;11870;53.084;18.206;2023-06-14T10:12:50;8.30;;;5.40;;
23394;SDS011;11870;53.084;18.206;2023-06-14T10:15:24;9.13;;;4.95;;
23394;SDS011;11870;53.084;18.206;2023-06-14T10:20:52;13.88;;;5.45;;
23394;SDS011;11870;53.084;18.206;2023-06-14T10:23:22;9.32;;;5.25;;
23394;SDS011;11870;53.084;18.206;2023-06-14T10:25:50;14.77;;;5.00;;
23394;SDS011;11870;53.084;18.206;2023-06-14T10:28:20;15.73;;;5.85;;
23394;SDS011;11870;53.084;18.206;2023-06-14T10:31:02;9.10;;;5.05;;
23394;SDS011;11870;53.084;18.206;2023-06-14T10:33:29;8.10;;;4.60;;
23394;SDS011;11870;53.084;18.206;2023-06-14T10:41:31;9.55;;;4.65;;
23394;SDS011;11870;53.084;18.206;2023-06-14T10:46:38;10.82;;;5.20;;
23394;SDS011;11870;53.084;18.206;2023-06-14T10:49:06;12.57;;;5.18;;
23394;SDS011;11870;53.084;18.206;2023-06-14T10:51:38;8.05;;;4.70;;
23394;SDS011;11870;53.084;18.206;2023-06-14T10:54:12;15.30;;;5.40;;
23394;SDS011;11870;53.084;18.206;2023-06-14T10:56:40;7.95;;;4.40;;
23394;SDS011;11870;53.084;18.206;2023-06-14T10:59:15;9.55;;;4.75;;
23394;SDS011;11870;53.084;18.206;2023-06-14T11:04:34;14.98;;;4.57;;
23394;SDS011;11870;53.084;18.206;2023-06-14T11:13:03;9.18;;;4.30;;
23394;SDS011;11870;53.084;18.206;2023-06-14T11:15:30;6.05;;;4.10;;
23394;SDS011;11870;53.084;18.206;2023-06-14T11:17:57;7.03;;;4.40;;
23394;SDS011;11870;53.084;18.206;2023-06-14T11:20:27;8.13;;;5.10;;
23394;SDS011;11870;53.084;18.206;2023-06-14T11:22:55;10.20;;;4.10;;
23394;SDS011;11870;53.084;18.206;2023-06-14T11:25:21;5.65;;;4.03;;
23394;SDS011;11870;53.084;18.206;2023-06-14T11:27:51;9.40;;;3.90;;
23394;SDS011;11870;53.084;18.206;2023-06-14T11:30:18;7.82;;;3.67;;
23394;SDS011;11870;53.084;18.206;2023-06-14T11:32:48;10.85;;;4.03;;
23394;SDS011;11870;53.084;18.206;2023-06-14T11:35:16;8.00;;;3.45;;
23394;SDS011;11870;53.084;18.206;2023-06-14T11:37:42;7.00;;;3.28;;
23394;SDS011;11870;53.084;18.206;2023-06-14T11:40:10;4.80;;;3.00;;
23394;SDS011;11870;53.084;18.206;2023-06-14T11:42:37;8.40;;;3.20;;
23394;SDS011;11870;53.084;18.206;2023-06-14T11:45:09;6.40;;;2.78;;
23394;SDS011;11870;53.084;18.206;2023-06-14T11:47:37;4.53;;;2.95;;
23394;SDS011;11870;53.084;18.206;2023-06-14T11:50:04;4.18;;;2.50;;
23394;SDS011;11870;53.084;18.206;2023-06-14T11:52:32;3.63;;;2.53;;
23394;SDS011;11870;53.084;18.206;2023-06-14T11:54:58;4.00;;;3.03;;
23394;SDS011;11870;53.084;18.206;2023-06-14T11:57:25;5.60;;;3.00;;
23394;SDS011;11870;53.084;18.206;2023-06-14T11:59:52;7.50;;;3.72;;
23394;SDS011;11870;53.084;18.206;2023-06-14T12:02:19;6.95;;;3.22;;
23394;SDS011;11870;53.084;18.206;2023-06-14T12:04:47;7.82;;;3.85;;
23394;SDS011;11870;53.084;18.206;2023-06-14T12:07:14;6.18;;;4.38;;
23394;SDS011;11870;53.084;18.206;2023-06-14T12:10:03;6.97;;;4.35;;
23394;SDS011;11870;53.084;18.206;2023-06-14T12:12:34;5.53;;;3.75;;
23394;SDS011;11870;53.084;18.206;2023-06-14T12:15:05;7.05;;;4.07;;
23394;SDS011;11870;53.084;18.206;2023-06-14T12:17:36;7.13;;;4.07;;
23394;SDS011;11870;53.084;18.206;2023-06-14T12:20:11;12.82;;;3.83;;
23394;SDS011;11870;53.084;18.206;2023-06-14T12:22:50;9.00;;;3.53;;
23394;SDS011;11870;53.084;18.206;2023-06-14T12:25:30;6.35;;;3.22;;
23394;SDS011;11870;53.084;18.206;2023-06-14T12:28:04;8.55;;;3.08;;
23394;SDS011;11870;53.084;18.206;2023-06-14T12:30:35;7.18;;;3.25;;
23394;SDS011;11870;53.084;18.206;2023-06-14T12:33:02;5.18;;;3.47;;
23394;SDS011;11870;53.084;18.206;2023-06-14T12:35:29;4.90;;;2.95;;
23394;SDS011;11870;53.084;18.206;2023-06-14T12:37:58;5.55;;;2.97;;
23394;SDS011;11870;53.084;18.206;2023-06-14T12:40:24;5.63;;;2.80;;
23394;SDS011;11870;53.084;18.206;2023-06-14T12:42:50;5.78;;;2.92;;
23394;SDS011;11870;53.084;18.206;2023-06-14T12:45:16;4.55;;;3.13;;
23394;SDS011;11870;53.084;18.206;2023-06-14T12:47:43;5.05;;;3.45;;
23394;SDS011;11870;53.084;18.206;2023-06-14T12:50:09;10.18;;;3.00;;
23394;SDS011;11870;53.084;18.206;2023-06-14T12:52:38;5.88;;;3.65;;
23394;SDS011;11870;53.084;18.206;2023-06-14T12:55:13;9.75;;;3.90;;
23394;SDS011;11870;53.084;18.206;2023-06-14T12:57:40;9.13;;;4.38;;
23394;SDS011;11870;53.084;18.206;2023-06-14T13:00:06;10.35;;;4.22;;
23394;SDS011;11870;53.084;18.206;2023-06-14T13:02:33;8.13;;;4.03;;
23394;SDS011;11870;53.084;18.206;2023-06-14T13:05:00;6.18;;;4.15;;
23394;SDS011;11870;53.084;18.206;2023-06-14T13:07:29;6.85;;;4.07;;
23394;SDS011;11870;53.084;18.206;2023-06-14T13:09:56;7.22;;;4.65;;
23394;SDS011;11870;53.084;18.206;2023-06-14T13:12:22;11.23;;;4.60;;
23394;SDS011;11870;53.084;18.206;2023-06-14T13:14:51;7.82;;;4.50;;
23394;SDS011;11870;53.084;18.206;2023-06-14T13:17:38;8.18;;;4.57;;
23394;SDS011;11870;53.084;18.206;2023-06-14T13:20:05;8.48;;;4.25;;
23394;SDS011;11870;53.084;18.206;2023-06-14T13:22:32;7.38;;;4.13;;
23394;SDS011;11870;53.084;18.206;2023-06-14T13:24:59;5.22;;;3.90;;
23394;SDS011;11870;53.084;18.206;2023-06-14T13:27:26;10.70;;;3.83;;
23394;SDS011;11870;53.084;18.206;2023-06-14T13:29:53;11.40;;;4.40;;
23394;SDS011;11870;53.084;18.206;2023-06-14T13:32:20;14.65;;;4.05;;
23394;SDS011;11870;53.084;18.206;2023-06-14T13:34:48;9.02;;;3.97;;
23394;SDS011;11870;53.084;18.206;2023-06-14T13:37:14;6.22;;;3.30;;
23394;SDS011;11870;53.084;18.206;2023-06-14T13:39:41;7.95;;;3.50;;
23394;SDS011;11870;53.084;18.206;2023-06-14T13:42:08;6.47;;;3.08;;
23394;SDS011;11870;53.084;18.206;2023-06-14T13:44:35;6.22;;;3.10;;
23394;SDS011;11870;53.084;18.206;2023-06-14T13:47:02;5.20;;;3.00;;
23394;SDS011;11870;53.084;18.206;2023-06-14T13:49:28;4.93;;;3.45;;
23394;SDS011;11870;53.084;18.206;2023-06-14T13:51:54;7.00;;;3.15;;
23394;SDS011;11870;53.084;18.206;2023-06-14T13:54:22;5.28;;;3.30;;
23394;SDS011;11870;53.084;18.206;2023-06-14T13:56:48;11.20;;;3.28;;
23394;SDS011;11870;53.084;18.206;2023-06-14T13:59:14;5.38;;;3.22;;
23394;SDS011;11870;53.084;18.206;2023-06-14T14:01:41;5.53;;;2.85;;
23394;SDS011;11870;53.084;18.206;2023-06-14T14:04:08;3.72;;;2.85;;
23394;SDS011;11870;53.084;18.206;2023-06-14T14:06:34;4.65;;;2.38;;
23394;SDS011;11870;53.084;18.206;2023-06-14T14:09:01;5.47;;;2.28;;
23394;SDS011;11870;53.084;18.206;2023-06-14T14:11:27;7.25;;;2.40;;
23394;SDS011;11870;53.084;18.206;2023-06-14T14:13:54;3.13;;;2.17;;
23394;SDS011;11870;53.084;18.206;2023-06-14T14:16:22;3.08;;;2.20;;
23394;SDS011;11870;53.084;18.206;2023-06-14T14:18:48;3.00;;;2.30;;
23394;SDS011;11870;53.084;18.206;2023-06-14T14:21:15;5.90;;;2.40;;
23394;SDS011;11870;53.084;18.206;2023-06-14T14:23:41;6.05;;;2.67;;
23394;SDS011;11870;53.084;18.206;2023-06-14T14:26:07;3.92;;;2.67;;
23394;SDS011;11870;53.084;18.206;2023-06-14T14:28:34;4.50;;;2.67;;
23394;SDS011;11870;53.084;18.206;2023-06-14T14:31:00;4.60;;;2.83;;
23394;SDS011;11870;53.084;18.206;2023-06-14T14:33:27;8.32;;;2.85;;
23394;SDS011;11870;53.084;18.206;2023-06-14T14:35:53;4.78;;;2.83;;
23394;SDS011;11870;53.084;18.206;2023-06-14T14:38:20;4.90;;;3.10;;
23394;SDS011;11870;53.084;18.206;2023-06-14T14:40:47;4.72;;;2.83;;
23394;SDS011;11870;53.084;18.206;2023-06-14T14:43:13;9.25;;;3.13;;
23394;SDS011;11870;53.084;18.206;2023-06-14T14:45:40;8.18;;;3.03;;
23394;SDS011;11870;53.084;18.206;2023-06-14T14:48:06;5.85;;;3.17;;
23394;SDS011;11870;53.084;18.206;2023-06-14T14:50:32;6.63;;;3.10;;
23394;SDS011;11870;53.084;18.206;2023-06-14T14:53:00;7.65;;;3.08;;